createdAt,value
2018-07-15T00:01:34.370Z,11.97
2018-07-15T00:04:03.165Z,13.20
2018-07-15T00:06:32.039Z,12.47
2018-07-15T00:09:01.383Z,12.57
2018-07-15T00:11:30.682Z,13.53
2018-07-15T00:13:59.991Z,13.63
2018-07-15T00:16:29.276Z,12.67
2018-07-15T00:18:58.622Z,11.73
2018-07-15T00:21:27.937Z,11.83
2018-07-15T00:23:57.221Z,12.00
2018-07-15T00:26:26.561Z,13.37
2018-07-15T00:28:55.349Z,12.30
2018-07-15T00:31:24.114Z,12.60
2018-07-15T00:33:53.470Z,12.70
2018-07-15T00:36:22.868Z,11.90
2018-07-15T00:38:52.215Z,13.20
2018-07-15T00:41:22.144Z,12.80
2018-07-15T00:43:51.629Z,12.30
2018-07-15T00:46:20.993Z,14.00
2018-07-15T00:48:50.348Z,14.10
2018-07-15T00:51:19.676Z,12.43
2018-07-15T00:53:48.408Z,13.67
2018-07-15T00:56:17.804Z,12.27
2018-07-15T00:58:47.115Z,12.70
2018-07-15T01:01:16.440Z,13.23
2018-07-15T01:03:45.797Z,14.13
2018-07-15T01:06:15.135Z,15.20
2018-07-15T01:08:44.474Z,13.70
2018-07-15T01:11:13.763Z,14.33
2018-07-15T01:13:42.542Z,13.70
2018-07-15T01:16:11.853Z,14.20
2018-07-15T01:18:40.589Z,15.50
2018-07-15T01:21:09.908Z,15.37
2018-07-15T01:23:39.298Z,16.17
2018-07-15T01:26:08.635Z,15.00
2018-07-15T01:28:37.432Z,15.97
2018-07-15T01:31:06.251Z,15.33
2018-07-15T01:33:35.635Z,16.17
2018-07-15T01:36:04.929Z,15.50
2018-07-15T01:38:34.261Z,15.90
2018-07-15T01:41:03.658Z,16.50
2018-07-15T01:43:32.984Z,14.97
2018-07-15T01:46:02.248Z,15.43
2018-07-15T01:48:31.559Z,16.27
2018-07-15T01:51:00.864Z,18.27
2018-07-15T01:53:30.188Z,15.77
2018-07-15T01:55:59.552Z,14.90
2018-07-15T01:58:28.851Z,15.33
2018-07-15T02:00:58.258Z,13.03
2018-07-15T02:03:27.602Z,14.70
2018-07-15T02:05:56.853Z,13.67
2018-07-15T02:08:26.232Z,14.03
2018-07-15T02:10:55.187Z,13.60
2018-07-15T02:13:24.497Z,13.20
2018-07-15T02:15:53.789Z,13.13
2018-07-15T02:18:23.102Z,11.90
2018-07-15T02:20:52.388Z,12.13
2018-07-15T02:23:21.707Z,12.10
2018-07-15T02:25:51.007Z,11.30
2018-07-15T02:28:19.794Z,11.30
2018-07-15T02:30:49.120Z,12.00
2018-07-15T02:33:18.549Z,10.50
2018-07-15T02:35:47.820Z,13.43
2018-07-15T02:38:17.172Z,11.97
2018-07-15T02:40:46.498Z,12.80
2018-07-15T02:43:15.769Z,11.00
2018-07-15T02:45:45.088Z,11.77
2018-07-15T02:48:14.381Z,12.00
2018-07-15T02:50:43.691Z,10.83
2018-07-15T02:53:13.032Z,11.50
2018-07-15T02:55:42.332Z,11.60
2018-07-15T02:58:11.627Z,11.33
2018-07-15T03:00:40.954Z,11.97
2018-07-15T03:03:10.232Z,13.57
2018-07-15T03:05:39.495Z,13.13
2018-07-15T03:08:08.926Z,14.60
2018-07-15T03:10:38.224Z,17.07
2018-07-15T03:13:07.555Z,18.80
2018-07-15T03:15:36.900Z,16.60
2018-07-15T03:18:06.216Z,15.27
2018-07-15T03:20:35.000Z,14.87
2018-07-15T03:23:04.334Z,12.17
2018-07-15T03:25:33.687Z,11.40
2018-07-15T03:28:02.994Z,12.47
2018-07-15T03:30:32.312Z,12.80
2018-07-15T03:33:01.641Z,10.60
2018-07-15T03:35:30.962Z,11.20
2018-07-15T03:38:00.328Z,11.40
2018-07-15T03:40:29.690Z,12.07
2018-07-15T03:42:59.012Z,12.60
2018-07-15T03:45:27.794Z,11.33
2018-07-15T03:47:56.536Z,12.10
2018-07-15T03:50:25.859Z,10.67
2018-07-15T03:52:55.172Z,10.20
2018-07-15T03:55:24.482Z,10.87
2018-07-15T03:57:53.253Z,12.10
2018-07-15T04:00:22.553Z,13.07
2018-07-15T04:02:51.852Z,10.93
2018-07-15T04:05:21.223Z,12.20
2018-07-15T04:07:50.518Z,11.10
2018-07-15T04:10:19.830Z,11.20
2018-07-15T04:12:55.499Z,10.23
2018-07-15T04:15:24.779Z,10.80
2018-07-15T04:18:02.281Z,10.93
2018-07-15T04:20:32.036Z,11.07
2018-07-15T04:23:01.915Z,10.67
2018-07-15T04:25:31.613Z,11.43
2018-07-15T04:28:00.873Z,11.00
2018-07-15T04:30:30.170Z,10.60
2018-07-15T04:32:59.516Z,9.40
2018-07-15T04:35:28.806Z,11.00
2018-07-15T04:37:58.195Z,9.77
2018-07-15T04:40:27.496Z,10.23
2018-07-15T04:42:56.810Z,9.67
2018-07-15T04:45:26.110Z,10.07
2018-07-15T04:47:55.461Z,10.00
2018-07-15T04:50:24.725Z,10.83
2018-07-15T04:52:54.040Z,11.60
2018-07-15T04:55:23.339Z,11.23
2018-07-15T04:57:52.593Z,12.07
2018-07-15T05:00:21.840Z,9.70
2018-07-15T05:02:51.347Z,9.67
2018-07-15T05:05:20.730Z,10.53
2018-07-15T05:07:50.044Z,10.60
2018-07-15T05:10:18.907Z,10.70
2018-07-15T05:12:48.258Z,11.23
2018-07-15T05:15:17.527Z,10.43
2018-07-15T05:17:46.871Z,9.90
2018-07-15T05:20:16.867Z,10.57
2018-07-15T05:22:45.639Z,11.10
2018-07-15T05:25:14.990Z,10.13
2018-07-15T05:27:44.261Z,10.83
2018-07-15T05:30:13.026Z,11.17
2018-07-15T05:32:42.309Z,10.90
2018-07-15T05:35:11.606Z,11.47
2018-07-15T05:37:40.908Z,12.83
2018-07-15T05:40:10.276Z,10.97
2018-07-15T05:42:39.618Z,10.93
2018-07-15T05:45:09.015Z,11.00
2018-07-15T05:47:38.342Z,10.57
2018-07-15T05:50:07.666Z,10.00
2018-07-15T05:52:37.064Z,11.40
2018-07-15T05:55:06.667Z,10.47
2018-07-15T05:57:36.111Z,12.03
2018-07-15T06:00:05.645Z,11.67
2018-07-15T06:02:34.996Z,10.40
2018-07-15T06:05:04.345Z,11.47
2018-07-15T06:07:33.691Z,12.73
2018-07-15T06:10:03.036Z,10.27
2018-07-15T06:12:32.437Z,11.90
2018-07-15T06:15:01.724Z,11.13
2018-07-15T06:17:31.036Z,12.97
2018-07-15T06:20:00.451Z,10.70
2018-07-15T06:22:29.732Z,12.30
2018-07-15T06:24:59.151Z,11.70
2018-07-15T06:27:28.520Z,12.63
2018-07-15T06:29:57.855Z,11.60
2018-07-15T06:32:27.207Z,12.80
2018-07-15T06:34:56.485Z,10.80
2018-07-15T06:37:25.197Z,11.03
2018-07-15T06:39:54.508Z,11.90
2018-07-15T06:42:23.838Z,11.90
2018-07-15T06:44:53.185Z,12.30
2018-07-15T06:47:22.499Z,13.50
2018-07-15T06:49:51.811Z,13.73
2018-07-15T06:52:21.126Z,11.90
2018-07-15T06:54:50.443Z,12.33
2018-07-15T06:57:19.772Z,12.70
2018-07-15T06:59:48.592Z,13.07
2018-07-15T07:02:17.927Z,12.80
2018-07-15T07:04:47.327Z,11.30
2018-07-15T07:07:16.798Z,12.33
2018-07-15T07:09:46.188Z,12.10
2018-07-15T07:12:15.519Z,12.27
2018-07-15T07:14:44.787Z,11.73
2018-07-15T07:17:14.167Z,12.82
2018-07-15T07:19:42.910Z,12.97
2018-07-15T07:22:12.184Z,11.40
2018-07-15T07:24:41.559Z,13.53
2018-07-15T07:27:10.360Z,11.43
2018-07-15T07:29:39.099Z,12.00
2018-07-15T07:32:08.438Z,11.90
2018-07-15T07:34:38.182Z,12.67
2018-07-15T07:37:07.663Z,10.90
2018-07-15T07:39:37.028Z,11.63
2018-07-15T07:42:06.535Z,12.00
2018-07-15T07:44:35.898Z,11.37
2018-07-15T07:47:05.271Z,10.83
2018-07-15T07:49:34.025Z,10.00
2018-07-15T07:52:03.369Z,11.03
2018-07-15T07:54:32.695Z,12.97
2018-07-15T07:57:02.003Z,12.37
2018-07-15T07:59:31.306Z,10.57
2018-07-15T08:02:00.638Z,10.60
2018-07-15T08:04:30.030Z,10.70
2018-07-15T08:06:59.351Z,9.93
2018-07-15T08:09:28.113Z,10.37
2018-07-15T08:11:57.438Z,11.53
2018-07-15T08:14:26.413Z,10.60
2018-07-15T08:16:55.794Z,11.17
2018-07-15T08:19:25.169Z,11.60
2018-07-15T08:21:55.182Z,10.03
2018-07-15T08:24:24.574Z,12.07
2018-07-15T08:26:53.875Z,11.67
2018-07-15T08:29:23.202Z,11.07
2018-07-15T08:31:52.487Z,10.63
2018-07-15T08:34:21.831Z,10.80
2018-07-15T08:36:51.285Z,9.90
2018-07-15T08:39:20.692Z,9.90
2018-07-15T08:41:50.252Z,9.90
2018-07-15T08:44:19.631Z,9.87
2018-07-15T08:46:48.967Z,9.17
2018-07-15T08:49:18.304Z,10.53
2018-07-15T08:51:47.660Z,9.00
2018-07-15T08:54:17.090Z,9.53
2018-07-15T08:56:46.514Z,8.43
2018-07-15T08:59:15.818Z,9.88
2018-07-15T09:01:45.251Z,9.70
2018-07-15T09:04:15.075Z,8.97
2018-07-15T09:06:43.876Z,9.50
2018-07-15T09:09:12.871Z,9.20
2018-07-15T09:11:44.435Z,10.13
2018-07-15T09:14:16.449Z,10.50
2018-07-15T09:16:45.806Z,9.20
2018-07-15T09:19:15.187Z,10.57
2018-07-15T09:21:44.667Z,10.40
2018-07-15T09:24:14.104Z,9.27
2018-07-15T09:26:43.561Z,9.73
2018-07-15T09:29:12.983Z,9.23
2018-07-15T09:31:43.329Z,10.13
2018-07-15T09:34:12.202Z,9.10
2018-07-15T09:36:41.631Z,9.13
2018-07-15T09:39:10.926Z,9.20
2018-07-15T09:41:39.739Z,9.50
2018-07-15T09:44:09.024Z,11.80
2018-07-15T09:46:38.344Z,9.90
2018-07-15T09:49:07.696Z,11.10
2018-07-15T09:51:37.141Z,9.73
2018-07-15T09:54:06.632Z,9.43
2018-07-15T09:56:35.401Z,9.10
2018-07-15T09:59:04.885Z,10.97
2018-07-15T10:01:34.197Z,12.00
2018-07-15T10:04:03.604Z,11.17
2018-07-15T10:06:32.949Z,11.53
2018-07-15T10:09:02.351Z,12.30
2018-07-15T10:11:31.728Z,13.30
2018-07-15T10:14:01.140Z,13.03
2018-07-15T10:16:30.476Z,13.77
2018-07-15T10:18:59.972Z,13.30
2018-07-15T10:21:29.247Z,11.97
2018-07-15T10:23:58.579Z,12.13
2018-07-15T10:26:27.922Z,12.67
2018-07-15T10:28:56.673Z,12.33
2018-07-15T10:31:26.148Z,12.60
2018-07-15T10:33:55.531Z,12.47
2018-07-15T10:36:24.334Z,12.80
2018-07-15T10:38:53.663Z,11.10
2018-07-15T10:41:23.080Z,11.70
2018-07-15T10:43:52.431Z,10.77
2018-07-15T10:46:21.817Z,12.77
2018-07-15T10:48:50.622Z,10.60
2018-07-15T10:51:19.958Z,7.90
2018-07-15T10:53:49.352Z,7.13
2018-07-15T10:56:18.721Z,7.83
2018-07-15T10:58:48.151Z,6.83
2018-07-15T11:01:17.541Z,6.50
2018-07-15T11:03:46.851Z,6.50
2018-07-15T11:06:16.268Z,7.20
2018-07-15T11:08:45.588Z,6.50
2018-07-15T11:11:14.847Z,6.50
2018-07-15T11:13:44.348Z,6.40
2018-07-15T11:16:13.706Z,6.60
2018-07-15T11:18:42.999Z,7.20
2018-07-15T11:21:12.327Z,7.20
2018-07-15T11:23:41.072Z,8.10
2018-07-15T11:26:10.396Z,6.63
2018-07-15T11:28:39.829Z,7.17
2018-07-15T11:31:10.453Z,6.70
2018-07-15T11:33:39.146Z,6.90
2018-07-15T11:36:08.549Z,7.70
2018-07-15T11:38:37.856Z,7.67
2018-07-15T11:41:07.550Z,7.80
2018-07-15T11:43:36.346Z,7.20
2018-07-15T11:46:05.107Z,6.20
2018-07-15T11:48:34.545Z,6.37
2018-07-15T11:51:03.850Z,6.33
2018-07-15T11:53:33.198Z,7.40
2018-07-15T11:56:02.564Z,7.60
2018-07-15T11:58:31.851Z,6.30
2018-07-15T12:01:01.153Z,7.53
2018-07-15T12:03:30.489Z,6.70
2018-07-15T12:05:59.822Z,6.03
2018-07-15T12:08:29.131Z,6.40
2018-07-15T12:10:58.517Z,6.37
2018-07-15T12:13:27.843Z,6.30
2018-07-15T12:15:57.332Z,6.47
2018-07-15T12:18:26.277Z,6.77
2018-07-15T12:20:55.620Z,6.70
2018-07-15T12:23:25.040Z,7.90
2018-07-15T12:25:53.859Z,5.60
2018-07-15T12:28:23.231Z,7.07
2018-07-15T12:30:52.748Z,6.83
2018-07-15T12:33:22.084Z,7.00
2018-07-15T12:35:55.143Z,6.97
2018-07-15T12:38:24.594Z,7.37
2018-07-15T12:40:53.950Z,6.63
2018-07-15T12:43:23.404Z,6.83
2018-07-15T12:45:52.187Z,7.30
2018-07-15T12:48:21.739Z,6.33
2018-07-15T12:50:51.124Z,6.93
2018-07-15T12:53:20.640Z,5.90
2018-07-15T12:55:50.264Z,6.50
2018-07-15T12:58:20.071Z,6.87
2018-07-15T13:00:49.502Z,5.80
2018-07-15T13:03:27.224Z,5.57
2018-07-15T13:05:57.077Z,5.50
2018-07-15T13:08:26.491Z,6.10
2018-07-15T13:10:57.384Z,7.90
2018-07-15T13:13:26.762Z,6.37
2018-07-15T13:15:56.067Z,6.30
2018-07-15T13:18:25.464Z,5.37
2018-07-15T13:20:54.819Z,5.60
2018-07-15T13:23:24.172Z,6.10
2018-07-15T13:25:53.474Z,7.17
2018-07-15T13:28:22.942Z,6.10
2018-07-15T13:30:52.234Z,6.60
2018-07-15T13:33:21.552Z,6.53
2018-07-15T13:35:51.077Z,7.10
2018-07-15T13:38:21.073Z,6.03
2018-07-15T13:40:50.921Z,5.80
2018-07-15T13:43:21.243Z,7.43
2018-07-15T13:45:51.362Z,6.47
2018-07-15T13:48:20.293Z,4.87
2018-07-15T13:50:50.508Z,5.27
2018-07-15T13:53:19.986Z,6.50
2018-07-15T13:55:50.261Z,5.30
2018-07-15T13:58:20.151Z,6.50
2018-07-15T14:00:49.770Z,6.30
2018-07-15T14:03:19.106Z,5.53
2018-07-15T14:05:48.472Z,6.90
2018-07-15T14:08:17.832Z,5.07
2018-07-15T14:10:47.234Z,6.00
2018-07-15T14:13:16.660Z,5.37
2018-07-15T14:15:46.115Z,5.83
2018-07-15T14:18:15.409Z,6.87
2018-07-15T14:20:44.819Z,5.07
2018-07-15T14:23:14.114Z,5.27
2018-07-15T14:25:43.449Z,5.20
2018-07-15T14:28:12.874Z,6.00
2018-07-15T14:30:41.704Z,5.40
2018-07-15T14:33:11.168Z,5.47
2018-07-15T14:35:40.317Z,4.83
2018-07-15T14:38:09.680Z,5.93
2018-07-15T14:40:39.054Z,5.77
2018-07-15T14:43:08.422Z,6.20
2018-07-15T14:45:44.492Z,5.33
2018-07-15T14:48:14.012Z,5.77
2018-07-15T14:50:44.211Z,6.07
2018-07-15T14:53:13.631Z,4.60
2018-07-15T14:55:43.095Z,4.57
2018-07-15T14:58:12.552Z,7.63
2018-07-15T15:00:41.368Z,5.47
2018-07-15T15:03:10.745Z,5.40
2018-07-15T15:05:39.581Z,6.30
2018-07-15T15:08:08.906Z,5.97
2018-07-15T15:10:38.301Z,7.27
2018-07-15T15:13:07.600Z,5.63
2018-07-15T15:15:36.492Z,5.27
2018-07-15T15:18:05.871Z,5.00
2018-07-15T15:20:35.205Z,6.20
2018-07-15T15:23:04.661Z,4.33
2018-07-15T15:25:34.199Z,5.63
2018-07-15T15:28:03.549Z,6.30
2018-07-15T15:30:37.368Z,5.70
2018-07-15T15:33:06.676Z,5.50
2018-07-15T15:35:36.141Z,5.90
2018-07-15T15:38:05.531Z,5.63
2018-07-15T15:40:35.655Z,6.57
2018-07-15T15:43:05.147Z,6.20
2018-07-15T15:45:34.506Z,6.57
2018-07-15T15:48:04.181Z,6.57
2018-07-15T15:50:33.570Z,6.77
2018-07-15T15:53:03.170Z,5.40
2018-07-15T15:55:33.201Z,6.10
2018-07-15T15:58:02.713Z,5.83
2018-07-15T16:00:32.152Z,5.83
2018-07-15T16:03:01.559Z,5.93
2018-07-15T16:05:30.949Z,5.17
2018-07-15T16:08:00.357Z,5.23
2018-07-15T16:10:29.793Z,6.30
2018-07-15T16:12:59.272Z,4.43
2018-07-15T16:15:28.577Z,5.53
2018-07-15T16:17:58.103Z,6.23
2018-07-15T16:20:27.416Z,5.73
2018-07-15T16:22:56.816Z,6.10
2018-07-15T16:25:26.452Z,5.87
2018-07-15T16:27:55.891Z,4.90
2018-07-15T16:30:25.434Z,5.70
2018-07-15T16:32:54.894Z,6.30
2018-07-15T16:35:24.510Z,4.90
2018-07-15T16:37:54.549Z,5.43
2018-07-15T16:40:23.958Z,5.50
2018-07-15T16:42:53.345Z,6.30
2018-07-15T16:45:22.816Z,5.77
2018-07-15T16:47:52.185Z,5.87
2018-07-15T16:50:21.503Z,6.67
2018-07-15T16:52:50.305Z,7.97
2018-07-15T16:55:19.187Z,6.60
2018-07-15T16:57:48.608Z,7.47
2018-07-15T17:00:17.957Z,7.90
2018-07-15T17:02:47.307Z,6.70
2018-07-15T17:05:16.804Z,5.63
2018-07-15T17:07:46.150Z,6.03
2018-07-15T17:10:15.477Z,5.70
2018-07-15T17:12:44.798Z,6.60
2018-07-15T17:15:14.153Z,6.17
2018-07-15T17:17:43.556Z,6.70
2018-07-15T17:20:12.924Z,6.13
2018-07-15T17:22:42.300Z,6.10
2018-07-15T17:25:11.168Z,5.63
2018-07-15T17:27:40.513Z,7.67
2018-07-15T17:30:09.926Z,6.17
2018-07-15T17:32:39.218Z,5.40
2018-07-15T17:35:08.660Z,6.47
2018-07-15T17:37:38.334Z,5.50
2018-07-15T17:40:07.800Z,5.70
2018-07-15T17:42:36.660Z,4.93
2018-07-15T17:45:06.128Z,5.03
2018-07-15T17:47:36.549Z,4.70
2018-07-15T17:50:05.933Z,6.00
2018-07-15T17:52:34.799Z,5.60
2018-07-15T17:55:04.978Z,5.60
2018-07-15T17:57:34.371Z,6.67
2018-07-15T18:00:03.913Z,5.37
2018-07-15T18:02:33.215Z,5.27
2018-07-15T18:05:02.573Z,3.67
2018-07-15T18:07:31.902Z,4.03
2018-07-15T18:10:01.285Z,3.67
2018-07-15T18:12:30.640Z,3.80
2018-07-15T18:15:00.015Z,4.13
2018-07-15T18:17:29.297Z,4.03
2018-07-15T18:19:58.666Z,3.20
2018-07-15T18:22:27.514Z,2.20
2018-07-15T18:24:56.786Z,2.50
2018-07-15T18:27:26.217Z,2.53
2018-07-15T18:29:55.451Z,1.90
2018-07-15T18:32:24.159Z,3.30
2018-07-15T18:34:53.426Z,3.67
2018-07-15T18:37:22.688Z,3.53
2018-07-15T18:39:51.999Z,3.20
2018-07-15T18:42:21.391Z,3.10
2018-07-15T18:44:50.749Z,2.47
2018-07-15T18:47:20.100Z,3.07
2018-07-15T18:49:49.401Z,3.10
2018-07-15T18:52:18.699Z,2.80
2018-07-15T18:54:47.993Z,3.20
2018-07-15T18:57:17.341Z,2.60
2018-07-15T18:59:46.691Z,2.87
2018-07-15T19:02:15.997Z,2.80
2018-07-15T19:04:45.308Z,2.30
2018-07-15T19:07:14.581Z,2.70
2018-07-15T19:09:44.019Z,2.57
2018-07-15T19:12:13.410Z,3.00
2018-07-15T19:14:42.774Z,2.57
2018-07-15T19:17:12.287Z,2.23
2018-07-15T19:19:41.600Z,2.47
2018-07-15T19:22:10.939Z,2.50
2018-07-15T19:24:40.299Z,2.63
2018-07-15T19:27:09.584Z,3.23
2018-07-15T19:29:39.678Z,2.40
2018-07-15T19:32:09.043Z,3.23
2018-07-15T19:34:38.401Z,3.37
2018-07-15T19:37:07.704Z,3.90
2018-07-15T19:39:37.042Z,4.17
2018-07-15T19:42:06.352Z,4.57
2018-07-15T19:44:35.734Z,3.93
2018-07-15T19:47:05.299Z,5.10
2018-07-15T19:49:34.709Z,4.00
2018-07-15T19:52:04.076Z,5.70
2018-07-15T19:54:33.458Z,4.93
2018-07-15T19:57:02.760Z,5.47
2018-07-15T19:59:32.115Z,4.87
2018-07-15T20:02:01.379Z,6.43
2018-07-15T20:04:30.702Z,4.20
2018-07-15T20:07:00.049Z,5.13
2018-07-15T20:09:29.339Z,4.47
2018-07-15T20:11:58.722Z,4.90
2018-07-15T20:14:28.020Z,5.80
2018-07-15T20:16:57.276Z,3.90
2018-07-15T20:19:26.572Z,3.90
2018-07-15T20:21:55.828Z,5.27
2018-07-15T20:24:25.095Z,4.17
2018-07-15T20:26:54.085Z,3.83
2018-07-15T20:29:22.912Z,3.83
2018-07-15T20:31:52.233Z,4.57
2018-07-15T20:34:21.570Z,5.00
2018-07-15T20:36:50.892Z,5.63
2018-07-15T20:39:20.212Z,5.00
2018-07-15T20:41:49.588Z,5.60
2018-07-15T20:44:19.020Z,5.97
2018-07-15T20:46:48.469Z,4.13
2018-07-15T20:49:17.797Z,4.47
2018-07-15T20:51:47.228Z,5.13
2018-07-15T20:54:16.544Z,3.90
2018-07-15T20:56:45.851Z,4.33
2018-07-15T20:59:15.095Z,4.33
2018-07-15T21:01:44.554Z,4.17
2018-07-15T21:04:13.900Z,4.40
2018-07-15T21:06:43.261Z,3.93
2018-07-15T21:09:12.603Z,5.20
2018-07-15T21:11:41.342Z,5.27
2018-07-15T21:14:11.707Z,4.27
2018-07-15T21:16:41.047Z,5.20
2018-07-15T21:19:10.360Z,5.57
2018-07-15T21:21:39.720Z,5.03
2018-07-15T21:24:09.086Z,5.90
2018-07-15T21:26:38.345Z,5.40
2018-07-15T21:29:07.645Z,5.40
2018-07-15T21:31:37.084Z,5.90
2018-07-15T21:34:06.624Z,5.27
2018-07-15T21:36:36.067Z,5.90
2018-07-15T21:39:06.816Z,7.20
2018-07-15T21:41:36.127Z,6.22
2018-07-15T21:44:05.581Z,5.80
2018-07-15T21:46:34.310Z,6.37
2018-07-15T21:49:03.712Z,6.87
2018-07-15T21:51:33.077Z,6.70
2018-07-15T21:54:02.540Z,6.10
2018-07-15T21:56:31.809Z,6.17
2018-07-15T21:59:01.087Z,6.80
2018-07-15T22:01:41.008Z,5.97
2018-07-15T22:04:10.571Z,5.60
2018-07-15T22:06:50.829Z,5.90
2018-07-15T22:09:31.114Z,6.10
2018-07-15T22:12:00.925Z,5.60
2018-07-15T22:14:29.765Z,6.83
2018-07-15T22:16:59.144Z,5.97
2018-07-15T22:19:28.747Z,5.50
2018-07-15T22:21:58.100Z,6.80
2018-07-15T22:24:27.509Z,5.90
2018-07-15T22:26:56.862Z,6.60
2018-07-15T22:29:26.176Z,5.83
2018-07-15T22:31:55.586Z,5.80
2018-07-15T22:34:24.926Z,6.80
2018-07-15T22:36:54.272Z,6.40
2018-07-15T22:39:23.583Z,6.50
2018-07-15T22:41:52.872Z,6.80
2018-07-15T22:44:28.404Z,5.77
2018-07-15T22:46:57.775Z,6.73
2018-07-15T22:49:27.107Z,5.80
2018-07-15T22:51:56.795Z,6.80
2018-07-15T22:54:25.627Z,6.50
2018-07-15T22:56:55.003Z,6.07
2018-07-15T22:59:24.396Z,5.80
2018-07-15T23:01:53.800Z,5.97
2018-07-15T23:04:27.931Z,6.43
2018-07-15T23:06:57.254Z,4.97
2018-07-15T23:09:26.620Z,5.73
2018-07-15T23:11:55.994Z,6.10
2018-07-15T23:14:25.214Z,6.80
2018-07-15T23:16:54.014Z,6.23
2018-07-15T23:19:22.812Z,6.77
2018-07-15T23:21:52.187Z,5.67
2018-07-15T23:24:20.979Z,6.10
2018-07-15T23:26:49.730Z,6.50
2018-07-15T23:29:19.028Z,6.47
2018-07-15T23:31:48.303Z,7.53
2018-07-15T23:34:17.601Z,6.83
2018-07-15T23:36:46.956Z,6.70
2018-07-15T23:39:16.227Z,6.83
2018-07-15T23:41:45.640Z,6.40
2018-07-15T23:44:14.927Z,7.33
2018-07-15T23:46:44.212Z,6.93
2018-07-15T23:49:13.494Z,8.60
2018-07-15T23:51:42.845Z,6.47
2018-07-15T23:54:12.123Z,6.27
2018-07-15T23:56:41.449Z,6.40
2018-07-15T23:59:10.771Z,6.83
